Latest Weather Observations for PORTABLE RFSNSW10

IDN60801

Issued at 11:52 am EDT Thursday 21 November 2019 (issued every 10 minutes, with the page automatically refreshed every 10 minutes)

About weather observations | Map of weather stations | Latest weather observations for NSW | Other Formats
Station Details ID: 250064 Name: PORTABLE RFSNSW10 Lat: -33.37 Lon: 150.75 Height: 282.0 m

Portable automatic weather stations (PAWS) are operated by other organisations, such as Fire and Emergency Services, and are included here by agreement. Portable stations may be deployed to a location for a short period and their location may be subject to change without notice. Wind observations from these stations are provided from heights of either three (3) or ten (10) metres above ground level (AGL).

Data from the previous 72 hours. | See also: Recent months for locations in New South Wales
Date/Time
EDT
Temp
°C
App
Temp
°C
Dew
Point
°C
Rel
Hum
%
Delta-T
°C
Wind Press
QNH
hPa
Press
MSL
hPa
Rain since
9am
mm
Dir  Spd
km/h
Gust
km/h
Spd
kts
Gust
kts
21/11:40am 29.9 27.8 12.3 33 10.4 WSW 15 22 8 12 - - 0.0
21/11:30am 29.5 27.4 12.5 35 10.1 WSW 15 26 8 14 - - 0.0
21/11:20am 28.9 26.9 12.7 36 9.6 SW 15 19 8 10 - - 0.0
21/11:10am 28.6 26.6 12.8 37 9.4 WSW 15 19 8 10 - - 0.0
21/11:00am 27.9 26.3 14.0 42 8.4 SW 15 22 8 12 - - 0.0
21/10:50am 27.6 26.2 14.6 45 7.9 W 15 22 8 12 - - 0.0
21/10:40am 27.2 26.5 14.2 44 7.9 W 11 15 6 8 - - 0.0
21/10:30am - - 14.4 - - SW 11 19 6 10 - - 0.0
21/10:20am - - 15.1 - - WSW 15 19 8 10 - - 0.0
21/10:10am - - 14.1 - - SSW 15 22 8 12 - - 0.0
21/10:00am - - 14.1 - - SSW 15 26 8 14 - - 0.0
21/09:50am - - 14.5 - - SSW 15 22 8 12 - - 0.0
21/09:40am - - 14.4 - - S 11 19 6 10 - - 0.0
21/09:30am - - 14.4 - - S 15 22 8 12 - - 0.0
21/09:20am - - 14.3 - - S 15 19 8 10 - - 0.0
21/09:10am - - 14.2 - - SSW 15 22 8 12 - - 0.0
21/09:00am - - 14.5 - - SSW 19 26 10 14 - - 0.0
21/08:50am - - 14.3 - - S 19 22 10 12 - - 0.0
21/08:40am - - 14.3 - - SSE 19 32 10 17 - - 0.0
21/08:30am - - 14.3 - - S 22 26 12 14 - - 0.0
21/08:20am - - 14.3 - - SSE 19 30 10 16 - - 0.0
21/08:10am - - 14.5 - - SSW 19 22 10 12 - - 0.0
21/08:00am - - 14.0 - - NNW 19 26 10 14 - - 0.0
21/07:50am - - 14.0 - - E 19 22 10 12 - - 0.0
21/07:40am - - 14.0 - - SE 15 19 8 10 - - 0.0
21/07:30am - - 13.5 - - SSE 19 22 10 12 - - 0.0
21/07:20am - - 13.7 - - S 19 22 10 12 - - 0.0
21/07:10am - - 13.5 - - W 15 19 8 10 - - 0.0
21/07:00am - - 13.5 - - WNW 15 15 8 8 - - 0.0
21/06:50am - - 13.4 - - WNW 15 15 8 8 - - 0.0
21/06:40am - - 13.3 - - WNW 15 15 8 8 - - 0.0
21/06:30am - - 13.3 - - WNW 11 15 6 8 - - 0.0
21/06:20am - - 13.2 - - WNW 11 15 6 8 - - 0.0
21/06:10am - - 13.1 - - WNW 11 11 6 6 - - 0.0
21/06:00am - - 13.1 - - WNW 11 11 6 6 - - 0.0
21/05:50am - - 13.1 - - NW 11 15 6 8 - - 0.0
21/05:40am - - 13.0 - - NW 7 15 4 8 - - 0.0
21/05:30am - - 13.1 - - NW 11 15 6 8 - - 0.0
21/05:20am - - 13.2 - - NW 11 15 6 8 - - 0.0
21/04:30am 14.3 13.2 13.2 93 0.6 W 11 15 6 8 - - 0.0
21/04:20am 14.4 13.4 13.3 93 0.6 SW 11 11 6 6 - - 0.0
21/04:10am 14.4 14.1 13.2 92 0.7 SW 7 11 4 6 - - 0.0
21/04:00am 14.6 14.3 13.2 91 0.8 SW 7 11 4 6 - - 0.0
21/03:50am 14.7 14.4 13.2 91 0.8 SW 7 7 4 4 - - 0.0
21/03:40am 14.7 14.9 13.2 91 0.8 SW 4 7 2 4 - - 0.0
21/03:30am 14.7 15.0 13.3 91 0.8 SW 4 7 2 4 - - 0.0
21/03:20am 14.8 15.9 13.5 92 0.7 CALM 0 4 0 2 - - 0.0
21/03:10am 15.0 15.3 13.4 90 0.9 SW 4 7 2 4 - - 0.0
21/03:00am 15.1 14.9 13.5 90 0.9 SW 7 7 4 4 - - 0.0
21/02:50am 14.7 15.8 13.6 93 0.6 CALM 0 4 0 2 - - 0.0
21/02:40am 14.8 15.2 13.6 92 0.7 SW 4 7 2 4 - - 0.0
21/02:30am 14.9 16.0 13.5 91 0.8 CALM 0 4 0 2 - - 0.0
21/02:20am 15.0 15.3 13.5 91 0.8 SW 4 7 2 4 - - 0.0
21/02:10am 15.1 15.4 13.4 89 1.0 SW 4 7 2 4 - - 0.0
21/02:00am 15.2 15.6 13.6 90 0.9 SW 4 7 2 4 - - 0.0
21/01:50am 15.3 15.1 13.6 90 1.0 SSW 7 7 4 4 - - 0.0
21/01:40am 15.3 15.1 13.6 90 1.0 S 7 11 4 6 - - 0.0
21/01:30am 15.3 15.1 13.6 90 1.0 S 7 11 4 6 - - 0.0
21/01:20am 15.3 15.0 13.4 88 1.1 S 7 11 4 6 - - 0.0
21/01:10am 15.1 14.9 13.5 90 0.9 S 7 11 4 6 - - 0.0
21/01:00am 15.0 15.3 13.5 91 0.8 S 4 4 2 2 - - 0.0
21/12:50am 15.1 16.2 13.5 90 0.9 CALM 0 4 0 2 - - 0.0
21/12:40am 15.1 15.4 13.5 90 0.9 S 4 4 2 2 - - 0.0
21/12:30am 15.0 15.3 13.5 91 0.8 S 4 4 2 2 - - 0.0
21/12:20am 15.0 16.1 13.6 91 0.8 CALM 0 4 0 2 - - 0.0
21/12:10am 15.1 16.2 13.5 90 0.9 CALM 0 0 0 0 - - 0.0
21/12:00am 15.2 16.3 13.6 90 0.9 CALM 0 0 0 0 - - 0.0
 
Date/Time
EDT
Temp
°C
App
Temp
°C
Dew
Point
°C
Rel
Hum
%
Delta-T
°C
Wind Press
QNH
hPa
Press
MSL
hPa
Rain since
9am
mm
Dir  Spd
km/h
Gust
km/h
Spd
kts
Gust
kts
20/11:50pm 15.4 16.5 13.5 88 1.1 CALM 0 0 0 0 - - 0.0
20/11:40pm 15.4 16.5 13.5 88 1.1 CALM 0 0 0 0 - - 0.0
20/11:30pm 15.5 16.5 13.2 86 1.3 CALM 0 0 0 0 - - 0.0
20/11:20pm 15.7 16.8 13.4 86 1.3 CALM 0 0 0 0 - - 0.0
20/11:10pm 15.6 16.7 13.4 87 1.2 CALM 0 0 0 0 - - 0.0
20/11:00pm 15.6 16.6 13.2 86 1.4 CALM 0 4 0 2 - - 0.0
20/10:50pm 15.6 16.5 13.0 84 1.5 CALM 0 4 0 2 - - 0.0
20/10:40pm 15.7 16.6 13.0 84 1.5 CALM 0 0 0 0 - - 0.0
20/10:30pm 15.7 16.7 13.1 84 1.5 CALM 0 0 0 0 - - 0.0
20/10:20pm 15.8 16.8 13.1 84 1.5 CALM 0 0 0 0 - - 0.0
20/10:10pm 16.1 17.0 13.0 82 1.7 CALM 0 0 0 0 - - 0.0
20/10:00pm 16.3 16.5 12.9 80 1.9 S 4 7 2 4 - - 0.0
20/09:50pm 16.4 16.0 12.9 80 2.0 S 7 7 4 4 - - 0.0
20/09:40pm 16.4 16.5 12.8 79 2.0 S 4 7 2 4 - - 0.0
20/09:30pm 16.6 17.5 13.0 79 2.0 CALM 0 4 0 2 - - 0.0
20/09:20pm 16.7 17.6 12.9 78 2.1 CALM 0 7 0 4 - - 0.0
20/09:10pm 16.9 17.1 12.9 77 2.3 S 4 4 2 2 - - 0.0
20/09:00pm 17.1 17.3 12.9 76 2.4 S 4 11 2 6 - - 0.0
20/08:50pm 17.3 17.5 13.0 76 2.4 S 4 7 2 4 - - 0.0
20/08:40pm 17.5 17.7 13.0 75 2.6 S 4 7 2 4 - - 0.0
20/08:30pm 17.7 17.9 13.0 74 2.7 S 4 7 2 4 - - 0.0
20/08:20pm 17.9 17.5 12.9 72 2.8 SSE 7 15 4 8 - - 0.0
20/08:10pm 18.1 18.3 13.0 72 2.9 SE 4 11 2 6 - - 0.0
20/08:00pm 18.5 18.7 12.9 70 3.2 SE 4 7 2 4 - - 0.0
20/07:50pm 18.8 18.9 12.8 68 3.4 ESE 4 7 2 4 - - 0.0
20/07:40pm 19.2 18.8 12.9 67 3.6 SSE 7 11 4 6 - - 0.0
20/07:30pm 19.7 19.9 12.9 65 3.9 SSE 4 11 2 6 - - 0.0
20/07:20pm 20.3 19.8 12.8 62 4.3 SSE 7 11 4 6 - - 0.0
20/07:10pm 20.8 20.4 12.9 60 4.5 SSE 7 11 4 6 - - 0.0
20/07:00pm 21.4 21.0 12.9 58 4.9 S 7 11 4 6 - - 0.0
20/06:50pm 22.2 21.1 13.0 56 5.3 SSW 11 22 6 12 - - 0.0
20/06:40pm 23.6 23.3 13.3 52 6.0 W 7 11 4 6 - - 0.0
20/06:30pm 24.1 23.8 13.2 50 6.4 W 7 15 4 8 - - 0.0
20/06:20pm 24.7 24.4 13.3 49 6.7 W 7 19 4 10 - - 0.0
20/06:10pm 25.4 24.4 13.3 47 7.2 NW 11 15 6 8 - - 0.0
20/06:00pm 25.7 24.7 13.4 46 7.3 NE 11 22 6 12 - - 0.0
20/05:50pm 26.4 25.4 13.3 44 7.8 S 11 19 6 10 - - 0.0
20/05:40pm 27.0 25.2 13.3 42 8.2 S 15 30 8 16 - - 0.0
20/05:30pm 27.5 26.5 13.3 41 8.5 SSW 11 15 6 8 - - 0.0
20/05:20pm 27.5 25.7 13.4 41 8.4 NNW 15 22 8 12 - - 0.0
20/05:10pm 28.4 27.4 13.4 39 9.0 N 11 11 6 6 - - 0.0
20/05:00pm 28.1 26.3 13.4 40 8.8 ENE 15 19 8 10 - - 0.0
20/04:50pm 28.6 27.6 13.4 39 9.1 S 11 15 6 8 - - 0.0
20/04:40pm 28.8 27.8 13.4 38 9.3 S 11 11 6 6 - - 0.0
20/04:30pm 28.6 26.7 13.1 38 9.3 S 15 15 8 8 - - 0.0
20/04:20pm 28.6 27.4 12.8 37 9.4 SSW 11 19 6 10 - - 0.0
20/04:10pm 28.3 26.6 13.5 40 8.9 W 15 22 8 12 - - 0.0
20/03:50pm 29.0 27.3 13.6 38 9.3 NNE 15 19 8 10 - - 0.0
20/03:40pm 29.0 27.6 12.3 35 9.9 NE 11 15 6 8 - - 0.0
20/03:30pm 29.3 27.8 11.9 34 10.2 E 11 15 6 8 - - 0.0
20/03:00pm 27.6 25.4 12.1 38 9.1 ESE 15 26 8 14 - - 0.0
20/02:50pm 28.0 25.9 12.3 37 9.2 SSE 15 19 8 10 - - 0.0
20/02:30pm 28.2 26.8 12.3 37 9.4 SSE 11 15 6 8 - - 0.0
20/02:00pm 27.6 26.1 12.0 38 9.1 ESE 11 19 6 10 - - 0.0
20/01:40pm 27.0 24.7 11.7 38 8.9 S 15 22 8 12 - - 0.0
20/01:20pm 27.1 25.6 12.0 39 8.8 SSE 11 15 6 8 - - 0.0
20/01:10pm 27.2 25.8 12.2 39 8.8 SE 11 15 6 8 - - 0.0
20/01:00pm 26.0 24.6 12.2 42 8.0 SSE 11 19 6 10 - - 0.0
20/12:50pm 25.5 23.9 11.4 41 8.1 SSW 11 19 6 10 - - 0.0
20/11:30am 22.9 21.3 11.5 48 6.5 ESE 11 22 6 12 - - 0.0
20/11:00am 21.1 19.3 11.0 52 5.6 SW 11 22 6 12 - - 0.0
20/10:30am 20.9 19.1 10.9 52 5.6 E 11 15 6 8 - - 0.0
20/09:40am 19.3 - 11.7 61 4.2 - - - - - - - 0.0
20/09:00am 17.8 - 12.1 69 3.2 - - - - - - - 0.0
20/08:50am 17.6 - 12.0 69 3.1 - - - - - - - 0.0
20/08:40am 17.4 - 12.1 71 3.0 - - - - - - - 0.0
20/08:30am 17.3 - 12.2 72 2.8 - - - - - - - 0.0
20/08:20am 17.1 - 12.2 73 2.7 - - - - - - - 0.0
20/08:00am 17.0 - 12.2 73 2.7 - - - - - - - 0.0
20/07:50am 16.9 - 12.2 74 2.6 - - - - - - - 0.0
20/06:30am 16.4 - 12.7 79 2.1 - - - - - - - 0.0
20/06:20am 16.4 - 12.8 79 2.0 - - - - - - - 0.0
20/06:10am 16.4 - 12.8 79 2.0 - - - - - - - 0.0
20/05:40am 16.4 - 12.7 79 2.1 - - - - - - - 0.0
20/05:30am 16.4 - 12.7 79 2.1 - - - - - - - 0.0
20/05:20am 16.5 - 12.6 78 2.2 - - - - - - - 0.0
20/05:10am 16.5 - 12.6 78 2.2 - - - - - - - 0.0
20/05:00am 16.5 - 12.6 78 2.2 - - - - - - - 0.0
20/04:50am 16.5 - 12.5 77 2.2 - - - - - - - 0.0
20/04:40am 16.5 - 12.5 77 2.2 - - - - - - - 0.0
20/04:30am 16.6 - 12.6 77 2.2 - - - - - - - 0.0
20/04:20am 16.6 - 12.6 77 2.2 - - - - - - - 0.0
20/04:10am 16.6 - 12.8 78 2.1 - - - - - - - 0.0
20/04:00am 16.7 - 13.0 79 2.1 - - - - - - - 0.0
20/03:50am 16.7 - 13.2 80 2.0 - - - - - - - 0.0
20/03:30am 16.8 - 13.3 80 2.0 - - - - - - - 0.0
20/03:20am 16.9 - 13.3 79 2.0 - - - - - - - 0.0
20/03:10am 16.9 - 13.4 80 2.0 - - - - - - - 0.0
20/03:00am 17.0 - 13.4 79 2.1 - - - - - - - 0.0
20/02:50am 17.0 - 13.5 80 2.0 - - - - - - - 0.0
20/02:40am 17.0 - 13.5 80 2.0 - - - - - - - 0.0
 
Date/Time
EDT
Temp
°C
App
Temp
°C
Dew
Point
°C
Rel
Hum
%
Delta-T
°C
Wind Press
QNH
hPa
Press
MSL
hPa
Rain since
9am
mm
Dir  Spd
km/h
Gust
km/h
Spd
kts
Gust
kts
19/02:10pm 35.5 - -0.1 10 17.8 - - - - - - - 0.0
19/02:00pm 35.6 - 0.8 11 17.7 - - - - - - - 0.0
19/01:50pm 35.4 - -1.1 10 18.0 - - - - - - - 0.0
19/01:40pm 35.1 - -0.1 10 17.6 - - - - - - - 0.0
19/01:30pm 34.6 - -1.3 10 17.5 - - - - - - - 0.0
19/01:20pm 34.8 - -1.0 10 17.6 - - - - - - - 0.0
19/01:10pm 34.5 - -1.3 10 17.5 - - - - - - - 0.0
19/01:00pm 33.9 - -1.6 10 17.2 - - - - - - - 0.0
19/12:50pm 34.1 - -1.2 10 17.2 - - - - - - - 0.0
19/12:40pm 34.1 - -1.4 10 17.2 - - - - - - - 0.0
19/12:30pm 34.5 - -1.8 10 17.6 - - - - - - - 0.0
19/12:20pm 33.7 - -0.2 11 16.8 - - - - - - - 0.0
19/12:10pm 33.9 - 0.6 12 16.7 - - - - - - - 0.0
19/12:00pm 34.0 - -0.6 11 17.0 - - - - - - - 0.0
19/11:50am 33.7 - 0.3 12 16.6 - - - - - - - 0.0
19/11:40am 33.3 - 1.5 13 16.1 - - - - - - - 0.0
19/11:30am 33.7 - 0.3 12 16.6 - - - - - - - 0.0
19/11:20am 33.1 - 0.9 13 16.1 - - - - - - - 0.0
19/11:10am 32.7 - 0.6 13 16.0 - - - - - - - 0.0
19/11:00am 32.6 - 2.6 15 15.4 - - - - - - - 0.0
19/10:50am 32.7 - 2.7 15 15.5 - - - - - - - 0.0
19/10:40am 31.9 - 2.1 15 15.1 - - - - - - - 0.0
19/10:30am 32.2 - 5.2 18 14.4 - - - - - - - 0.0
19/10:20am 31.8 - 5.5 19 14.1 - - - - - - - 0.0
19/10:10am 31.0 - 4.3 18 14.0 - - - - - - - 0.0
19/10:00am 30.3 - 6.2 22 13.0 - - - - - - - 0.0
19/09:50am 29.6 - 2.9 18 13.5 - - - - - - - 0.0
19/09:40am 28.6 - 5.9 23 12.0 - - - - - - - 0.0
19/09:30am 27.6 - 5.7 24 11.5 - - - - - - - 0.0
19/09:20am 26.8 - 5.4 25 11.1 - - - - - - - 0.0
19/09:10am 26.0 - 5.5 27 10.6 - - - - - - - 0.0
19/09:00am 25.4 - 4.2 25 10.7 - - - - - - - 0.0
19/08:50am 24.6 - 3.6 25 10.4 - - - - - - - 0.0
19/08:40am 24.1 - 4.7 28 9.8 - - - - - - - 0.0
19/08:30am 23.3 - 4.6 29 9.4 - - - - - - - 0.0
19/08:20am 23.3 - 5.6 31 9.1 - - - - - - - 0.0
19/08:10am 23.0 - 6.9 35 8.4 - - - - - - - 0.0
19/08:00am 21.9 - 5.2 33 8.4 - - - - - - - 0.0
19/07:50am 21.1 - 6.2 38 7.6 - - - - - - - 0.0
19/07:40am 20.6 - 6.4 39 7.2 - - - - - - - 0.0
19/07:30am 20.0 - 6.3 41 7.0 - - - - - - - 0.0
19/07:20am 19.7 - 5.2 38 7.2 - - - - - - - 0.0
19/07:10am 19.7 - 3.7 34 7.7 - - - - - - - 0.0
19/07:00am 19.3 - 3.4 35 7.6 - - - - - - - 0.0
19/06:50am 19.1 - 3.1 34 7.6 - - - - - - - 0.0
19/06:40am 18.9 - 3.0 34 7.5 - - - - - - - 0.0
19/06:30am 18.8 - 3.1 35 7.4 - - - - - - - 0.0
19/06:20am 18.5 - 2.3 34 7.5 - - - - - - - 0.0
19/06:10am 18.1 - 2.6 35 7.2 - - - - - - - 0.0
19/06:00am 17.9 - 3.1 37 6.9 - - - - - - - 0.0
19/05:50am 18.1 - 3.5 38 6.9 - - - - - - - 0.0
19/05:40am 18.4 - 2.2 34 7.5 - - - - - - - 0.0
19/05:30am 18.8 - 2.9 34 7.5 - - - - - - - 0.0
19/05:20am 18.8 - 2.2 33 7.7 - - - - - - - 0.0
19/05:10am 19.0 - 2.9 34 7.6 - - - - - - - 0.0
19/05:00am 19.1 - 2.1 32 7.9 - - - - - - - 0.0
19/04:50am 18.9 - 2.2 33 7.8 - - - - - - - 0.0
19/04:40am 18.9 - 2.0 32 7.8 - - - - - - - 0.0
19/04:30am 19.5 - 3.8 35 7.6 - - - - - - - 0.0
19/04:20am 19.9 - 1.6 29 8.5 - - - - - - - 0.0
19/04:10am 20.0 - 1.8 29 8.5 - - - - - - - 0.0
19/04:00am 20.2 - 1.5 28 8.7 - - - - - - - 0.0
19/03:50am 20.2 - 2.1 30 8.5 - - - - - - - 0.0
19/03:40am 20.1 - 1.5 29 8.6 - - - - - - - 0.0
19/03:30am 20.0 - 1.6 29 8.5 - - - - - - - 0.0
19/03:20am 20.0 - 2.6 31 8.2 - - - - - - - 0.0
19/03:10am 20.1 - 2.1 30 8.4 - - - - - - - 0.0
19/03:00am 20.7 - 2.2 29 8.7 - - - - - - - 0.0
19/02:50am 21.0 - 1.5 27 9.1 - - - - - - - 0.0
19/02:40am 20.7 - 1.0 27 9.1 - - - - - - - 0.0
19/02:30am 20.8 - 0.8 26 9.2 - - - - - - - 0.0
19/02:20am 21.0 - 0.5 25 9.4 - - - - - - - 0.0
19/02:10am 21.0 - 0.8 26 9.3 - - - - - - - 0.0
19/02:00am 20.8 - 1.1 27 9.1 - - - - - - - 0.0
19/01:50am 20.9 - 1.1 27 9.1 - - - - - - - 0.0
19/01:40am 20.9 - 0.7 26 9.3 - - - - - - - 0.0
19/01:30am 21.3 - 1.1 26 9.4 - - - - - - - 0.0
19/01:20am 21.4 - 0.3 24 9.6 - - - - - - - 0.0
19/01:10am 21.8 - 0.4 24 9.8 - - - - - - - 0.0
19/01:00am 22.2 - 0.6 24 10.0 - - - - - - - 0.0
19/12:50am 22.3 - 0.4 23 10.1 - - - - - - - 0.0
19/12:40am 22.1 - -0.1 23 10.1 - - - - - - - 0.0
19/12:30am 22.4 - -0.1 22 10.3 - - - - - - - 0.0
19/12:20am 22.4 - 0.2 23 10.2 - - - - - - - 0.0
19/12:10am 22.5 - 0.2 22 10.2 - - - - - - - 0.0
19/12:00am 22.5 - 0.2 22 10.2 - - - - - - - 0.0
 
Date/Time
EDT
Temp
°C
App
Temp
°C
Dew
Point
°C
Rel
Hum
%
Delta-T
°C
Wind Press
QNH
hPa
Press
MSL
hPa
Rain since
9am
mm
Dir  Spd
km/h
Gust
km/h
Spd
kts
Gust
kts
18/11:50pm 22.3 - 1.3 25 9.8 - - - - - - - 0.0
18/11:40pm 22.2 - 1.0 24 9.9 - - - - - - - 0.0
18/11:30pm 21.9 - 2.0 27 9.4 - - - - - - - 0.0
18/11:20pm 21.3 - 3.2 30 8.7 - - - - - - - 0.0
18/11:10pm 20.5 - 6.5 40 7.2 - - - - - - - 0.0
18/11:00pm 19.8 - 8.1 46 6.1 - - - - - - - 0.0
18/10:50pm 19.3 - 13.5 69 3.3 - - - - - - - 0.0
18/10:40pm 19.6 - 14.0 70 3.3 - - - - - - - 0.0
18/10:30pm 19.5 - 14.0 70 3.2 - - - - - - - 0.0
18/10:20pm 19.5 - 14.2 71 3.1 - - - - - - - 0.0
18/10:10pm 19.7 - 14.0 69 3.3 - - - - - - - 0.0
18/10:00pm 19.9 - 14.3 70 3.3 - - - - - - - 0.0
18/09:50pm 20.3 - 14.2 68 3.6 - - - - - - - 0.0
18/09:40pm 20.5 - 13.9 66 3.9 - - - - - - - 0.0
18/09:30pm 20.4 - 13.9 66 3.8 - - - - - - - 0.0
18/09:20pm 20.2 - 14.2 68 3.5 - - - - - - - 0.0
18/09:10pm 20.6 - 14.0 66 3.9 - - - - - - - 0.0
18/09:00pm 20.8 - 13.9 64 4.0 - - - - - - - 0.0
18/08:50pm 21.0 - 13.9 64 4.2 - - - - - - - 0.0
18/08:40pm 20.7 - 13.7 64 4.1 - - - - - - - 0.0
18/08:30pm 20.9 - 13.8 64 4.2 - - - - - - - 0.0
18/08:20pm 21.0 - 13.7 63 4.3 - - - - - - - 0.0
18/08:10pm 21.1 - 13.6 62 4.4 - - - - - - - 0.0
18/08:00pm 21.2 - 13.6 62 4.4 - - - - - - - 0.0
18/07:50pm 21.5 - 13.6 60 4.6 - - - - - - - 0.0
18/07:40pm 21.8 - 13.6 59 4.8 - - - - - - - 0.0
18/07:30pm 22.3 - 13.5 57 5.2 - - - - - - - 0.0
18/07:20pm 22.6 - 13.4 56 5.4 - - - - - - - 0.0
18/07:10pm 23.1 - 13.3 54 5.7 - - - - - - - 0.0
18/07:00pm 23.6 - 13.1 51 6.1 - - - - - - - 0.0
18/06:50pm 24.0 - 13.1 50 6.4 - - - - - - - 0.0
18/06:40pm 24.4 - 12.9 48 6.7 - - - - - - - 0.0
18/06:30pm 24.8 - 12.8 47 7.0 - - - - - - - 0.0
18/06:20pm 25.1 - 12.8 46 7.2 - - - - - - - 0.0
18/06:10pm 25.5 - 12.7 45 7.5 - - - - - - - 0.0
18/06:00pm 26.1 - 12.6 43 7.9 - - - - - - - 0.0
18/05:50pm 26.9 - 12.5 40 8.5 - - - - - - - 0.0
18/05:40pm 27.5 - 11.2 36 9.4 - - - - - - - 0.0
18/05:30pm 28.0 - 10.7 34 9.9 - - - - - - - 0.0
18/05:20pm 28.2 - 9.5 31 10.5 - - - - - - - 0.0
18/05:10pm 28.6 - 9.2 29 10.9 - - - - - - - 0.0
18/05:00pm 28.3 - 8.7 29 10.9 - - - - - - - 0.0
18/04:50pm 28.4 - 8.9 29 10.9 - - - - - - - 0.0
18/04:40pm 29.0 - 9.4 29 11.1 - - - - - - - 0.0
18/04:30pm 29.0 - 8.7 28 11.3 - - - - - - - 0.0
18/04:20pm 29.3 - 8.5 27 11.6 - - - - - - - 0.0
18/04:10pm 29.3 - 9.4 29 11.2 - - - - - - - 0.0
18/04:00pm 29.3 - 8.9 28 11.4 - - - - - - - 0.0
18/03:50pm 29.2 - 8.9 28 11.4 - - - - - - - 0.0
18/03:40pm 29.3 - 8.7 27 11.5 - - - - - - - 0.0
18/03:30pm 28.3 - 8.1 28 11.1 - - - - - - - 0.0
18/03:20pm 28.0 - 8.8 30 10.7 - - - - - - - 0.0
18/03:10pm 28.4 - 8.5 28 11.0 - - - - - - - 0.0
18/03:00pm 29.6 - 9.1 27 11.5 - - - - - - - 0.0
18/02:50pm 29.4 - 4.0 20 13.1 - - - - - - - 0.0
18/02:40pm 28.9 - 4.7 21 12.6 - - - - - - - 0.0
18/02:30pm 28.6 - 6.5 24 11.8 - - - - - - - 0.0
18/02:20pm 28.3 - 6.4 25 11.7 - - - - - - - 0.0
18/02:10pm 28.0 - 5.6 24 11.8 - - - - - - - 0.0
18/02:00pm 27.7 - 5.9 25 11.5 - - - - - - - 0.0
18/01:50pm 27.4 - 6.3 26 11.2 - - - - - - - 0.0
18/01:40pm 27.8 - 6.6 26 11.3 - - - - - - - 0.0
18/01:30pm 27.4 - 6.8 27 11.0 - - - - - - - 0.0
18/01:20pm 26.9 - 6.1 26 11.0 - - - - - - - 0.0
18/01:10pm 26.8 - 5.3 25 11.2 - - - - - - - 0.0
18/01:00pm 26.5 - 5.8 26 10.8 - - - - - - - 0.0
18/12:50pm 26.3 - 6.0 27 10.7 - - - - - - - 0.0
18/12:40pm 25.9 - 6.1 28 10.4 - - - - - - - 0.0
18/12:30pm 25.0 - 6.4 30 9.8 - - - - - - - 0.0
18/12:20pm 25.4 - 6.6 30 9.9 - - - - - - - 0.0
18/12:10pm 25.2 - 7.8 33 9.4 - - - - - - - 0.0
18/12:00pm 24.8 - 7.4 33 9.3 - - - - - - - 0.0

Other formats

Comma delimited format used in spreadsheet applications
http://www.bom.gov.au/fwo/IDN60801/IDN60801.99752.axf

JavaScript Object Notation format (JSON) in row-major order
http://www.bom.gov.au/fwo/IDN60801/IDN60801.99752.json

Data quality

Most of these data are generated automatically and are frequently updated. Quality checks on data are not normally performed. It is possible for incorrect values to appear. Refer to information at About Latest Weather Observations and please check the disclaimer before using these data.